Time;durP1;ratioP1;P1;durP2;ratioP2;P2;SDS_P1;SDS_P2;PMS_P1;PMS_P2;Temp;Humidity;BMP_temperature;BMP_pressure;BME280_temperature;BME280_humidity;BME280_pressure;Samples;Min_cycle;Max_cycle;Signal;HPM_P1;HPM_P2
2022/05/02 00:02:14;;;;;;;13.10;5.68;;;;;;;;;;5082121;28;20032;-67
2022/05/02 00:04:39;;;;;;;11.27;7.95;;;;;;;;;;5081782;28;20028;-67
2022/05/02 00:07:04;;;;;;;17.88;9.57;;;;;;;;;;5081148;28;20186;-70
2022/05/02 00:09:30;;;;;;;23.40;13.13;;;;;;;;;;5081566;28;20024;-66
2022/05/02 00:11:55;;;;;;;18.70;9.30;;;;;;;;;;5080780;28;20016;-69
2022/05/02 00:14:20;;;;;;;22.35;11.05;;;;;;;;;;5079992;28;20035;-65
2022/05/02 00:16:45;;;;;;;10.60;6.93;;;;;;;;;;5079955;28;20028;-68
2022/05/02 00:19:12;;;;;;;16.63;7.10;;;;;;;;;;5080385;28;20107;-73
2022/05/02 00:21:37;;;;;;;16.45;9.98;;;;;;;;;;5079866;28;20039;-69
2022/05/02 00:24:02;;;;;;;24.00;13.13;;;;;;;;;;5080273;28;20027;-67
2022/05/02 00:26:28;;;;;;;25.98;14.63;;;;;;;;;;5080875;28;20027;-70
2022/05/02 00:28:53;;;;;;;25.33;12.90;;;;;;;;;;5079746;28;20051;-66
2022/05/02 00:31:18;;;;;;;21.45;12.07;;;;;;;;;;5080158;28;20028;-68
2022/05/02 00:33:44;;;;;;;17.65;10.45;;;;;;;;;;5081260;28;20797;-66
2022/05/02 00:36:09;;;;;;;18.98;10.48;;;;;;;;;;5079772;28;20016;-67
2022/05/02 00:38:34;;;;;;;21.15;12.32;;;;;;;;;;5080298;28;20040;-69
2022/05/02 00:41:00;;;;;;;24.58;13.27;;;;;;;;;;5080878;28;20032;-66
2022/05/02 00:43:25;;;;;;;15.10;8.98;;;;;;;;;;5080086;28;20027;-69
2022/05/02 00:45:50;;;;;;;15.60;10.10;;;;;;;;;;5079998;28;20020;-67
2022/05/02 00:48:16;;;;;;;19.05;11.10;;;;;;;;;;5062436;28;20036;-72
2022/05/02 00:50:42;;;;;;;22.48;12.80;;;;;;;;;;5080342;28;20031;-69
2022/05/02 00:53:09;;;;;;;17.42;10.77;;;;;;;;;;5080232;28;20129;-69
2022/05/02 00:55:35;;;;;;;18.17;10.38;;;;;;;;;;5080177;28;20119;-66
2022/05/02 00:58:01;;;;;;;16.17;9.52;;;;;;;;;;5079888;28;20107;-69
2022/05/02 01:00:28;;;;;;;14.98;8.30;;;;;;;;;;5079763;28;20359;-67
2022/05/02 01:02:53;;;;;;;5.82;3.90;;;;;;;;;;5079605;28;20031;-68
2022/05/02 01:05:18;;;;;;;9.38;4.30;;;;;;;;;;5079861;28;20024;-68
2022/05/02 01:07:46;;;;;;;7.15;3.95;;;;;;;;;;5035813;28;1238210;-67
2022/05/02 01:10:16;;;;;;;4.45;3.75;;;;;;;;;;5081001;28;20107;-68
2022/05/02 01:12:42;;;;;;;9.00;5.40;;;;;;;;;;5080480;28;20097;-72
2022/05/02 01:15:08;;;;;;;10.80;6.70;;;;;;;;;;5080442;28;20036;-68
2022/05/02 01:17:34;;;;;;;12.30;7.38;;;;;;;;;;5079642;28;20031;-67
2022/05/02 01:19:59;;;;;;;10.38;7.05;;;;;;;;;;5080633;28;20084;-65
2022/05/02 01:22:24;;;;;;;10.55;6.13;;;;;;;;;;5080656;28;20028;-68
2022/05/02 01:24:50;;;;;;;8.82;4.95;;;;;;;;;;5080467;28;20850;-66
2022/05/02 01:27:15;;;;;;;10.13;6.93;;;;;;;;;;5080720;28;20016;-71
2022/05/02 01:29:42;;;;;;;13.10;7.57;;;;;;;;;;5080768;28;20417;-66
2022/05/02 01:32:09;;;;;;;9.82;7.15;;;;;;;;;;5080306;28;20111;-65
2022/05/02 01:34:34;;;;;;;12.38;8.18;;;;;;;;;;5080193;28;20111;-66
2022/05/02 01:37:03;;;;;;;12.85;7.97;;;;;;;;;;5061548;28;20119;-72
2022/05/02 01:39:29;;;;;;;8.57;5.35;;;;;;;;;;5080021;28;20396;-72
2022/05/02 01:41:55;;;;;;;5.35;4.55;;;;;;;;;;5080336;28;20036;-67
2022/05/02 01:44:20;;;;;;;13.38;9.27;;;;;;;;;;5079865;28;20028;-67
2022/05/02 01:46:46;;;;;;;17.80;12.35;;;;;;;;;;5080067;28;20024;-73
2022/05/02 01:49:11;;;;;;;17.77;9.35;;;;;;;;;;5080806;28;20049;-69
2022/05/02 01:51:36;;;;;;;8.23;5.65;;;;;;;;;;5080090;28;20023;-67
2022/05/02 01:54:02;;;;;;;6.40;4.32;;;;;;;;;;5080429;28;20093;-75
2022/05/02 01:56:27;;;;;;;6.18;4.47;;;;;;;;;;5079260;28;20358;-68
2022/05/02 01:58:52;;;;;;;6.90;4.30;;;;;;;;;;5079896;28;20064;-66
2022/05/02 02:01:18;;;;;;;7.93;5.22;;;;;;;;;;5079673;28;20376;-66
2022/05/02 02:03:43;;;;;;;8.25;5.20;;;;;;;;;;5079220;28;20016;-65
2022/05/02 02:06:08;;;;;;;8.85;5.30;;;;;;;;;;5079131;28;20047;-67
2022/05/02 02:08:34;;;;;;;10.00;5.40;;;;;;;;;;5079908;28;20097;-67
2022/05/02 02:11:01;;;;;;;9.60;5.15;;;;;;;;;;5080611;28;20055;-73
2022/05/02 02:13:26;;;;;;;8.27;5.60;;;;;;;;;;5080298;28;20034;-67
2022/05/02 02:15:52;;;;;;;6.72;4.47;;;;;;;;;;5080027;28;20342;-66
2022/05/02 02:18:18;;;;;;;5.60;3.78;;;;;;;;;;5080185;28;20051;-67
2022/05/02 02:20:44;;;;;;;6.90;4.72;;;;;;;;;;5079934;28;20028;-66
2022/05/02 02:23:10;;;;;;;7.03;4.30;;;;;;;;;;5081287;28;20461;-71
2022/05/02 02:25:36;;;;;;;11.57;8.05;;;;;;;;;;5080696;28;20035;-70
2022/05/02 02:28:02;;;;;;;7.68;5.22;;;;;;;;;;5080695;28;20093;-67
2022/05/02 02:30:30;;;;;;;4.90;4.05;;;;;;;;;;5080674;28;20028;-67
2022/05/02 02:32:59;;;;;;;8.93;5.63;;;;;;;;;;5079683;28;20097;-66
2022/05/02 02:35:24;;;;;;;12.55;7.13;;;;;;;;;;5078697;28;20031;-66
2022/05/02 02:37:50;;;;;;;6.40;4.20;;;;;;;;;;5080912;28;20024;-70
2022/05/02 02:40:15;;;;;;;8.10;4.40;;;;;;;;;;5083231;28;20028;-67
2022/05/02 02:42:41;;;;;;;6.22;4.38;;;;;;;;;;5083085;28;20054;-73
2022/05/02 02:45:06;;;;;;;6.32;4.05;;;;;;;;;;5083559;28;20348;-69
2022/05/02 02:47:32;;;;;;;5.38;4.18;;;;;;;;;;5083387;28;20087;-70
2022/05/02 02:49:57;;;;;;;5.75;3.72;;;;;;;;;;5065547;28;20039;-66
2022/05/02 02:52:23;;;;;;;5.20;3.80;;;;;;;;;;5083212;28;20103;-67
2022/05/02 02:54:48;;;;;;;5.43;3.72;;;;;;;;;;5083386;28;20016;-66
2022/05/02 02:57:13;;;;;;;6.35;3.75;;;;;;;;;;5083055;28;20089;-69
2022/05/02 02:59:39;;;;;;;6.75;4.32;;;;;;;;;;5083793;28;20066;-66
2022/05/02 03:02:05;;;;;;;6.75;4.20;;;;;;;;;;5083719;28;20027;-67
2022/05/02 03:07:14;;;;;;;5.47;4.22;;;;;;;;;;5081776;28;20481;-70
2022/05/02 03:09:39;;;;;;;7.50;4.07;;;;;;;;;;5083216;28;20040;-65
2022/05/02 03:12:05;;;;;;;6.75;3.72;;;;;;;;;;5083825;28;20024;-73
2022/05/02 03:14:30;;;;;;;6.95;3.83;;;;;;;;;;5083454;28;20036;-65
2022/05/02 03:16:55;;;;;;;5.45;4.40;;;;;;;;;;5082781;28;20042;-68
2022/05/02 03:19:21;;;;;;;7.10;4.93;;;;;;;;;;5082852;28;20354;-67
2022/05/02 03:21:46;;;;;;;8.07;4.63;;;;;;;;;;5083401;28;20042;-68
2022/05/02 03:24:11;;;;;;;7.25;4.97;;;;;;;;;;5082675;28;20032;-66
2022/05/02 03:26:37;;;;;;;6.78;4.40;;;;;;;;;;5083181;28;20024;-67
2022/05/02 03:29:02;;;;;;;7.00;4.95;;;;;;;;;;5083086;28;20086;-70
2022/05/02 03:31:28;;;;;;;7.22;4.97;;;;;;;;;;5082779;28;20459;-72
2022/05/02 03:33:53;;;;;;;7.35;5.50;;;;;;;;;;5082797;28;20077;-67
2022/05/02 03:36:19;;;;;;;8.60;6.35;;;;;;;;;;5081653;28;20032;-70
2022/05/02 03:38:44;;;;;;;9.82;6.03;;;;;;;;;;5081929;28;20435;-73
2022/05/02 03:41:09;;;;;;;10.88;7.38;;;;;;;;;;5081586;28;20409;-67
2022/05/02 03:43:36;;;;;;;11.02;6.28;;;;;;;;;;5082473;28;20024;-66
2022/05/02 03:46:01;;;;;;;10.13;6.20;;;;;;;;;;5082923;28;20095;-68
2022/05/02 03:48:27;;;;;;;13.25;8.38;;;;;;;;;;5081988;28;20043;-72
2022/05/02 03:50:52;;;;;;;17.45;9.82;;;;;;;;;;5081361;28;20459;-69
2022/05/02 03:53:18;;;;;;;18.98;10.07;;;;;;;;;;5081326;28;20020;-73
2022/05/02 03:55:45;;;;;;;12.13;7.40;;;;;;;;;;5081684;28;20123;-67
2022/05/02 03:58:10;;;;;;;11.82;6.97;;;;;;;;;;5081211;28;20035;-66
2022/05/02 04:00:36;;;;;;;11.38;7.00;;;;;;;;;;5080360;28;20036;-73
2022/05/02 04:03:01;;;;;;;6.95;4.72;;;;;;;;;;5082616;28;20016;-69
2022/05/02 04:05:27;;;;;;;7.57;4.60;;;;;;;;;;5081027;28;20020;-71
2022/05/02 04:07:52;;;;;;;9.13;5.00;;;;;;;;;;5081490;28;20052;-72
2022/05/02 04:10:18;;;;;;;11.27;6.95;;;;;;;;;;5081946;28;20031;-66
2022/05/02 04:12:43;;;;;;;9.98;6.07;;;;;;;;;;5081605;28;20028;-66
2022/05/02 04:15:12;;;;;;;10.55;6.13;;;;;;;;;;5081770;28;20074;-65
2022/05/02 04:17:37;;;;;;;13.13;6.97;;;;;;;;;;5063301;28;20028;-70
2022/05/02 04:20:03;;;;;;;10.05;6.15;;;;;;;;;;5081411;28;20016;-71
2022/05/02 04:22:29;;;;;;;8.10;5.28;;;;;;;;;;5080916;28;20024;-66
2022/05/02 04:24:54;;;;;;;7.05;5.30;;;;;;;;;;5081663;28;20094;-72
2022/05/02 04:27:19;;;;;;;6.93;5.13;;;;;;;;;;5080833;28;20035;-66
2022/05/02 04:29:45;;;;;;;9.60;5.93;;;;;;;;;;5080920;28;20038;-65
2022/05/02 04:32:10;;;;;;;9.38;5.72;;;;;;;;;;5080744;28;20069;-67
2022/05/02 04:34:35;;;;;;;6.43;5.15;;;;;;;;;;5079860;28;20077;-66
2022/05/02 04:37:01;;;;;;;7.68;4.43;;;;;;;;;;5081313;28;20012;-74
2022/05/02 04:39:26;;;;;;;7.40;4.38;;;;;;;;;;5081140;28;20039;-69
2022/05/02 04:41:51;;;;;;;5.05;4.07;;;;;;;;;;5080880;28;20031;-67
2022/05/02 04:44:17;;;;;;;5.60;4.43;;;;;;;;;;5081808;28;20503;-74
2022/05/02 04:46:42;;;;;;;8.50;5.50;;;;;;;;;;5081388;28;20024;-67
2022/05/02 04:49:07;;;;;;;11.05;4.82;;;;;;;;;;5081040;28;20161;-67
2022/05/02 04:51:32;;;;;;;23.90;14.88;;;;;;;;;;5081054;28;20100;-67
2022/05/02 04:53:58;;;;;;;13.35;9.15;;;;;;;;;;5080176;28;20408;-68
2022/05/02 04:56:24;;;;;;;9.35;6.15;;;;;;;;;;5063477;28;20052;-70
2022/05/02 04:58:49;;;;;;;15.27;10.93;;;;;;;;;;5080674;28;20020;-66
2022/05/02 05:01:14;;;;;;;40.65;22.23;;;;;;;;;;5080449;28;20035;-73
2022/05/02 05:03:40;;;;;;;44.63;22.75;;;;;;;;;;5079941;28;20032;-71
2022/05/02 05:06:05;;;;;;;16.48;9.50;;;;;;;;;;5080512;28;20040;-67
2022/05/02 05:08:30;;;;;;;71.28;48.90;;;;;;;;;;5081466;28;20032;-67
2022/05/02 05:11:09;;;;;;;83.95;63.55;;;;;;;;;;5080824;28;20096;-66
2022/05/02 05:16:20;;;;;;;37.20;28.10;;;;;;;;;;5080971;28;20031;-66
2022/05/02 05:16:42;;;;;;;16.15;12.52;;;;;;;;;;5079849;28;20073;-69
2022/05/02 05:19:18;;;;;;;9.20;6.30;;;;;;;;;;5080774;28;20458;-68
2022/05/02 05:21:58;;;;;;;7.38;5.70;;;;;;;;;;5079473;28;20028;-73
2022/05/02 05:24:36;;;;;;;18.52;15.85;;;;;;;;;;5080580;28;20035;-74
2022/05/02 05:27:08;;;;;;;17.02;15.00;;;;;;;;;;5079273;28;20123;-68
2022/05/02 05:29:52;;;;;;;10.95;9.00;;;;;;;;;;5079524;28;20026;-68
2022/05/02 05:32:21;;;;;;;9.43;7.53;;;;;;;;;;5080283;28;20028;-69
2022/05/02 05:34:55;;;;;;;6.72;5.53;;;;;;;;;;5080614;28;20060;-67
2022/05/02 05:37:39;;;;;;;6.78;5.18;;;;;;;;;;5079344;28;20448;-72
2022/05/02 05:40:07;;;;;;;6.03;4.93;;;;;;;;;;5079819;28;20066;-74
2022/05/02 05:42:45;;;;;;;8.35;4.28;;;;;;;;;;5080580;28;20450;-67
2022/05/02 05:45:26;;;;;;;5.57;4.70;;;;;;;;;;5079123;28;20032;-67
2022/05/02 05:48:10;;;;;;;9.00;5.20;;;;;;;;;;5080475;28;20095;-68
2022/05/02 05:50:41;;;;;;;9.07;5.60;;;;;;;;;;5079871;28;20059;-68
2022/05/02 05:53:25;;;;;;;7.05;5.32;;;;;;;;;;5079537;28;20073;-69
2022/05/02 05:56:09;;;;;;;6.25;4.93;;;;;;;;;;5080150;28;20028;-69
2022/05/02 05:58:45;;;;;;;10.27;5.28;;;;;;;;;;5079129;28;20035;-74
2022/05/02 06:01:11;;;;;;;5.22;4.28;;;;;;;;;;5080063;28;20111;-74
2022/05/02 06:04:00;;;;;;;11.55;5.13;;;;;;;;;;5080318;28;20111;-73
2022/05/02 06:06:27;;;;;;;6.72;5.60;;;;;;;;;;5073708;28;20055;-67
2022/05/02 06:08:52;;;;;;;7.50;4.95;;;;;;;;;;5078551;28;20115;-67
2022/05/02 06:11:19;;;;;;;9.18;5.35;;;;;;;;;;5080261;28;20112;-68
2022/05/02 06:13:45;;;;;;;7.20;5.03;;;;;;;;;;5083282;28;20019;-78
2022/05/02 06:18:56;;;;;;;5.93;4.88;;;;;;;;;;5084172;28;20122;-72
2022/05/02 06:21:22;;;;;;;8.65;4.85;;;;;;;;;;5084328;28;20028;-68
2022/05/02 06:23:50;;;;;;;7.57;5.40;;;;;;;;;;5084753;28;20131;-72
2022/05/02 06:26:17;;;;;;;6.63;4.97;;;;;;;;;;5084953;28;20331;-67
2022/05/02 06:28:43;;;;;;;6.55;4.97;;;;;;;;;;5085009;28;20065;-67
2022/05/02 06:31:29;;;;;;;7.57;4.93;;;;;;;;;;5084713;28;20451;-68
2022/05/02 06:33:56;;;;;;;7.63;4.68;;;;;;;;;;5084267;28;20031;-67
2022/05/02 06:36:33;;;;;;;5.85;4.38;;;;;;;;;;5083831;28;20458;-67
2022/05/02 06:39:14;;;;;;;6.88;4.22;;;;;;;;;;5084916;28;20081;-71
2022/05/02 06:41:58;;;;;;;5.72;4.10;;;;;;;;;;5083003;28;20046;-69
2022/05/02 06:44:29;;;;;;;6.13;3.78;;;;;;;;;;5083893;28;20028;-70
2022/05/02 06:46:57;;;;;;;9.48;5.07;;;;;;;;;;5084462;28;20016;-72
2022/05/02 06:49:24;;;;;;;7.32;4.65;;;;;;;;;;5082656;28;20032;-70
2022/05/02 06:51:50;;;;;;;6.28;4.50;;;;;;;;;;5083435;28;20046;-68
2022/05/02 06:54:38;;;;;;;6.68;4.60;;;;;;;;;;5083822;28;20757;-67
2022/05/02 06:57:18;;;;;;;5.70;4.35;;;;;;;;;;5084140;28;20035;-67
2022/05/02 06:59:52;;;;;;;6.43;4.18;;;;;;;;;;5082245;28;20042;-71
2022/05/02 07:02:27;;;;;;;5.85;3.75;;;;;;;;;;5082122;28;20036;-75
2022/05/02 07:04:55;;;;;;;8.70;3.85;;;;;;;;;;5083580;28;20110;-69
2022/05/02 07:07:30;;;;;;;5.30;3.83;;;;;;;;;;5084166;28;20474;-72
2022/05/02 07:10:01;;;;;;;5.68;3.72;;;;;;;;;;5065131;28;20438;-74
2022/05/02 07:12:27;;;;;;;6.43;3.80;;;;;;;;;;5082842;28;20027;-67
2022/05/02 07:14:59;;;;;;;5.80;4.00;;;;;;;;;;5083634;28;20052;-76
2022/05/02 07:17:43;;;;;;;5.22;3.75;;;;;;;;;;5082385;28;20377;-71
2022/05/02 07:20:14;;;;;;;7.32;4.10;;;;;;;;;;5084032;28;20043;-68
2022/05/02 07:22:42;;;;;;;4.00;2.90;;;;;;;;;;5083452;28;20464;-73
2022/05/02 07:25:09;;;;;;;5.68;3.50;;;;;;;;;;5082941;28;20431;-70
2022/05/02 07:27:38;;;;;;;12.95;5.40;;;;;;;;;;5082940;28;20439;-71
2022/05/02 07:30:04;;;;;;;5.17;3.60;;;;;;;;;;5083651;28;20450;-74
2022/05/02 07:32:29;;;;;;;7.78;5.43;;;;;;;;;;5082653;28;20016;-69
2022/05/02 07:34:56;;;;;;;6.32;4.40;;;;;;;;;;5083455;28;20024;-71
2022/05/02 07:37:24;;;;;;;9.50;5.25;;;;;;;;;;5082866;28;20594;-69
2022/05/02 07:39:51;;;;;;;7.05;4.32;;;;;;;;;;5083255;28;20032;-75
2022/05/02 07:42:18;;;;;;;4.43;3.75;;;;;;;;;;5083103;28;20363;-69
2022/05/02 07:44:44;;;;;;;11.73;5.28;;;;;;;;;;5083638;28;20019;-69
2022/05/02 07:47:11;;;;;;;4.78;3.10;;;;;;;;;;5082402;28;20090;-71
2022/05/02 07:49:39;;;;;;;5.45;3.10;;;;;;;;;;5083251;28;20106;-69
2022/05/02 07:52:05;;;;;;;4.05;3.10;;;;;;;;;;5081401;28;20534;-69
2022/05/02 07:54:34;;;;;;;4.82;2.90;;;;;;;;;;5081594;28;20146;-71
2022/05/02 07:57:00;;;;;;;3.17;2.60;;;;;;;;;;5083443;28;20025;-71
2022/05/02 07:59:29;;;;;;;6.57;4.10;;;;;;;;;;5082670;28;20085;-71
2022/05/02 08:01:56;;;;;;;3.70;3.30;;;;;;;;;;5082312;28;20027;-72
2022/05/02 08:04:22;;;;;;;3.58;2.10;;;;;;;;;;5064257;28;20039;-68
2022/05/02 08:06:56;;;;;;;2.67;1.98;;;;;;;;;;5063991;28;20051;-69
2022/05/02 08:09:31;;;;;;;4.90;2.00;;;;;;;;;;5081476;28;20032;-69
2022/05/02 08:12:02;;;;;;;3.03;1.95;;;;;;;;;;5082220;28;20016;-69
2022/05/02 08:14:35;;;;;;;5.10;3.05;;;;;;;;;;5081764;28;20084;-74
2022/05/02 08:17:10;;;;;;;3.03;2.20;;;;;;;;;;5081585;28;20023;-75
2022/05/02 08:19:48;;;;;;;4.68;2.03;;;;;;;;;;5081861;28;20032;-70
2022/05/02 08:28:13;;;;;;;5.63;2.53;;;;;;;;;;5035106;28;20448;-76
2022/05/02 08:30:44;;;;;;;2.13;1.15;;;;;;;;;;5080681;28;20027;-69
2022/05/02 08:33:12;;;;;;;2.85;1.75;;;;;;;;;;5082080;28;20038;-70
2022/05/02 08:35:57;;;;;;;3.40;1.85;;;;;;;;;;5081716;28;20024;-75
2022/05/02 08:38:25;;;;;;;4.97;1.85;;;;;;;;;;5082621;28;20031;-69
2022/05/02 08:41:03;;;;;;;4.63;1.77;;;;;;;;;;5081554;28;20036;-74
2022/05/02 08:43:46;;;;;;;3.05;1.65;;;;;;;;;;5082420;28;20032;-72
2022/05/02 08:46:30;;;;;;;4.90;1.92;;;;;;;;;;5081815;28;20031;-73
2022/05/02 08:49:32;;;;;;;5.45;1.98;;;;;;;;;;5081089;28;20028;-73
2022/05/02 08:52:00;;;;;;;8.63;2.67;;;;;;;;;;5081076;28;20024;-68
2022/05/02 08:55:04;;;;;;;3.70;1.40;;;;;;;;;;5080384;28;20036;-72
2022/05/02 08:57:32;;;;;;;1.92;1.77;;;;;;;;;;5039219;28;20471;-70
2022/05/02 09:00:03;;;;;;;3.63;1.77;;;;;;;;;;5036719;28;20084;-74
2022/05/02 09:02:47;;;;;;;8.18;1.63;;;;;;;;;;5059771;28;20040;-73
2022/05/02 09:05:18;;;;;;;6.60;1.90;;;;;;;;;;5081752;28;20461;-71
2022/05/02 09:07:56;;;;;;;12.27;1.77;;;;;;;;;;5081453;28;20171;-70
2022/05/02 09:10:33;;;;;;;8.95;2.13;;;;;;;;;;5081304;28;20043;-71
2022/05/02 09:12:59;;;;;;;3.13;1.60;;;;;;;;;;5081031;28;20055;-69
2022/05/02 09:15:43;;;;;;;4.07;1.88;;;;;;;;;;5080837;28;20118;-73
2022/05/02 09:18:23;;;;;;;6.10;1.88;;;;;;;;;;5080744;28;20103;-71
2022/05/02 09:20:53;;;;;;;4.82;1.90;;;;;;;;;;5080919;28;20451;-70
2022/05/02 09:23:37;;;;;;;3.88;2.00;;;;;;;;;;5081992;28;20092;-69
2022/05/02 09:26:03;;;;;;;3.42;2.03;;;;;;;;;;5080548;28;20339;-71
2022/05/02 09:28:46;;;;;;;4.57;1.98;;;;;;;;;;5081743;28;20024;-70
2022/05/02 09:31:32;;;;;;;4.38;2.63;;;;;;;;;;5081230;28;20071;-72
2022/05/02 09:34:00;;;;;;;3.92;2.05;;;;;;;;;;5081317;28;20015;-70
2022/05/02 09:36:27;;;;;;;6.47;1.95;;;;;;;;;;5080470;28;20032;-74
2022/05/02 09:39:01;;;;;;;5.32;2.30;;;;;;;;;;5080741;28;20031;-69
2022/05/02 09:41:45;;;;;;;7.25;4.18;;;;;;;;;;5081077;28;20725;-71
2022/05/02 09:50:34;;;;;;;6.60;1.80;;;;;;;;;;5063568;28;20038;-72
2022/05/02 09:53:04;;;;;;;4.88;2.10;;;;;;;;;;5081819;28;20617;-71
2022/05/02 09:58:31;;;;;;;8.57;2.47;;;;;;;;;;5082192;28;20035;-71
2022/05/02 10:01:17;;;;;;;8.52;2.28;;;;;;;;;;5082192;28;20146;-73
2022/05/02 10:03:58;;;;;;;5.03;2.45;;;;;;;;;;5081981;28;20028;-72
2022/05/02 10:06:24;;;;;;;3.85;1.75;;;;;;;;;;5081760;28;20071;-71
2022/05/02 10:09:09;;;;;;;2.70;2.15;;;;;;;;;;5082467;28;20346;-71
2022/05/02 10:11:34;;;;;;;3.90;1.70;;;;;;;;;;5081900;28;20574;-73
2022/05/02 10:13:59;;;;;;;4.60;1.77;;;;;;;;;;5081983;28;20122;-77
2022/05/02 10:16:45;;;;;;;2.90;1.90;;;;;;;;;;5064263;28;20031;-73
2022/05/02 10:19:22;;;;;;;2.58;2.20;;;;;;;;;;5072563;28;20272;-72
2022/05/02 10:21:56;;;;;;;2.78;1.73;;;;;;;;;;5081660;28;20103;-72
2022/05/02 10:24:40;;;;;;;2.47;1.63;;;;;;;;;;5081318;28;20020;-70
2022/05/02 10:27:21;;;;;;;4.28;2.00;;;;;;;;;;5080811;28;20032;-70
2022/05/02 10:29:46;;;;;;;4.45;2.40;;;;;;;;;;5081260;28;20067;-72
2022/05/02 10:32:26;;;;;;;3.85;2.25;;;;;;;;;;5081798;28;20064;-70
2022/05/02 10:34:52;;;;;;;4.60;1.88;;;;;;;;;;5081699;28;20015;-70
2022/05/02 10:37:21;;;;;;;4.70;1.70;;;;;;;;;;5082595;28;20375;-73
2022/05/02 10:39:47;;;;;;;2.88;2.33;;;;;;;;;;5082136;28;20033;-74
2022/05/02 10:42:16;;;;;;;5.25;1.80;;;;;;;;;;5080964;28;20354;-71
2022/05/02 10:44:41;;;;;;;5.18;2.30;;;;;;;;;;5081869;28;20044;-69
2022/05/02 10:47:07;;;;;;;4.88;2.30;;;;;;;;;;5081017;28;20600;-71
2022/05/02 10:49:33;;;;;;;4.05;1.98;;;;;;;;;;5081337;28;20040;-77
2022/05/02 10:52:07;;;;;;;5.88;1.52;;;;;;;;;;5081892;28;20042;-74
2022/05/02 10:54:48;;;;;;;6.30;1.80;;;;;;;;;;5080811;28;20024;-71
2022/05/02 10:57:31;;;;;;;6.53;1.40;;;;;;;;;;5080924;28;20028;-73
2022/05/02 11:00:00;;;;;;;7.32;1.70;;;;;;;;;;5084505;28;20045;-71
2022/05/02 11:02:29;;;;;;;3.05;1.65;;;;;;;;;;5085804;28;20107;-76
2022/05/02 11:05:08;;;;;;;2.45;2.05;;;;;;;;;;5084136;28;20039;-73
2022/05/02 11:07:34;;;;;;;;;;;;;;;;;;5085058;28;20056;-73
2022/05/02 11:10:09;;;;;;;3.00;2.47;;;;;;;;;;5085240;28;19919;-71
2022/05/02 11:12:42;;;;;;;1.70;1.60;;;;;;;;;;5084891;28;20028;-75
2022/05/02 11:15:17;;;;;;;5.88;1.70;;;;;;;;;;5084438;28;20028;-72
2022/05/02 11:18:07;;;;;;;1.88;1.63;;;;;;;;;;5085047;28;20028;-70
2022/05/02 11:20:42;;;;;;;1.95;1.63;;;;;;;;;;5085126;28;20036;-73
2022/05/02 11:23:26;;;;;;;1.45;1.30;;;;;;;;;;5084936;28;20145;-72
2022/05/02 11:26:11;;;;;;;2.75;1.10;;;;;;;;;;5083277;28;20028;-70
2022/05/02 11:28:55;;;;;;;3.28;1.40;;;;;;;;;;5061670;28;20405;-74
2022/05/02 11:31:40;;;;;;;3.97;1.50;;;;;;;;;;5085246;28;20036;-71
2022/05/02 11:34:11;;;;;;;2.17;1.90;;;;;;;;;;5085047;28;20618;-72
2022/05/02 11:36:42;;;;;;;3.63;1.92;;;;;;;;;;5084978;28;20103;-71
2022/05/02 11:39:08;;;;;;;2.20;1.70;;;;;;;;;;5084521;28;20024;-73
2022/05/02 11:41:40;;;;;;;5.50;1.92;;;;;;;;;;5084050;28;20507;-75
2022/05/02 11:44:11;;;;;;;5.18;1.80;;;;;;;;;;5084324;28;20024;-75
2022/05/02 11:46:46;;;;;;;3.70;2.80;;;;;;;;;;5084565;28;20024;-74
2022/05/02 11:49:31;;;;;;;2.95;1.60;;;;;;;;;;5084524;28;20040;-73
2022/05/02 11:52:00;;;;;;;3.90;1.73;;;;;;;;;;5084276;28;20328;-74
2022/05/02 11:54:42;;;;;;;4.28;2.00;;;;;;;;;;5083960;28;20111;-74
2022/05/02 11:57:10;;;;;;;4.57;1.63;;;;;;;;;;5083201;28;20048;-76
2022/05/02 11:59:45;;;;;;;4.20;1.53;;;;;;;;;;5083465;28;20463;-73
2022/05/02 12:02:20;;;;;;;3.55;1.40;;;;;;;;;;5084077;28;20020;-72
2022/05/02 12:04:47;;;;;;;5.75;1.67;;;;;;;;;;5084146;28;20028;-71
2022/05/02 12:07:13;;;;;;;2.13;1.40;;;;;;;;;;5083451;28;20477;-72
2022/05/02 12:09:40;;;;;;;4.55;3.63;;;;;;;;;;5082776;28;20032;-72
2022/05/02 12:12:07;;;;;;;4.97;1.65;;;;;;;;;;5082974;28;20035;-74
2022/05/02 12:14:32;;;;;;;4.75;1.60;;;;;;;;;;5083207;28;20109;-78
2022/05/02 12:17:11;;;;;;;3.10;1.50;;;;;;;;;;5083463;28;21168;-72
2022/05/02 12:19:37;;;;;;;1.30;1.15;;;;;;;;;;5081735;28;20055;-70
2022/05/02 12:22:04;;;;;;;2.15;1.17;;;;;;;;;;5083305;28;20512;-70
2022/05/02 12:24:34;;;;;;;4.65;1.50;;;;;;;;;;5082918;28;20020;-72
2022/05/02 12:26:59;;;;;;;2.83;2.10;;;;;;;;;;5083987;28;20036;-70
2022/05/02 12:29:26;;;;;;;2.67;1.92;;;;;;;;;;5083420;28;20324;-73
2022/05/02 12:32:02;;;;;;;3.38;2.63;;;;;;;;;;5083942;28;20467;-76
2022/05/02 12:34:35;;;;;;;4.25;1.63;;;;;;;;;;5082813;28;20522;-73
2022/05/02 12:37:04;;;;;;;6.45;2.55;;;;;;;;;;5082214;28;20320;-71
2022/05/02 12:39:34;;;;;;;6.20;1.70;;;;;;;;;;5082286;28;20036;-76
2022/05/02 12:42:17;;;;;;;4.40;1.55;;;;;;;;;;5064930;28;20463;-72
2022/05/02 12:44:43;;;;;;;3.20;1.20;;;;;;;;;;5083017;28;20046;-75
2022/05/02 12:47:14;;;;;;;2.05;1.48;;;;;;;;;;5082593;28;20023;-71
2022/05/02 12:49:52;;;;;;;1.92;1.40;;;;;;;;;;5081641;28;20039;-73
2022/05/02 12:52:18;;;;;;;2.25;1.42;;;;;;;;;;5082989;28;20032;-71
2022/05/02 12:54:48;;;;;;;12.15;8.13;;;;;;;;;;5081334;28;20146;-71
2022/05/02 13:02:55;;;;;;;7.75;3.28;;;;;;;;;;5036475;28;20035;-74
2022/05/02 13:05:23;;;;;;;4.65;2.17;;;;;;;;;;5082736;28;20359;-71
2022/05/02 13:07:48;;;;;;;18.23;12.70;;;;;;;;;;5081318;28;20044;-73
2022/05/02 13:10:34;;;;;;;3.40;2.35;;;;;;;;;;5082464;28;20032;-75
2022/05/02 13:13:02;;;;;;;2.45;1.30;;;;;;;;;;5081944;28;20047;-72
2022/05/02 13:15:29;;;;;;;2.03;1.73;;;;;;;;;;5082556;28;20063;-77
2022/05/02 13:17:59;;;;;;;2.67;1.88;;;;;;;;;;5083031;28;20032;-71
2022/05/02 13:20:26;;;;;;;2.65;1.58;;;;;;;;;;5080814;28;20035;-72
2022/05/02 13:22:57;;;;;;;3.15;1.55;;;;;;;;;;5081334;28;20039;-71
2022/05/02 13:25:42;;;;;;;7.13;2.10;;;;;;;;;;5082143;28;20040;-72
2022/05/02 13:28:09;;;;;;;5.28;2.20;;;;;;;;;;5081629;28;20335;-76
2022/05/02 13:30:34;;;;;;;6.28;1.50;;;;;;;;;;5082635;28;20561;-77
2022/05/02 13:33:03;;;;;;;5.18;1.23;;;;;;;;;;5081821;28;20111;-73
2022/05/02 13:35:33;;;;;;;3.78;1.23;;;;;;;;;;5082363;28;20082;-75
2022/05/02 13:38:11;;;;;;;2.30;1.25;;;;;;;;;;5082849;28;20020;-72
2022/05/02 13:40:54;;;;;;;2.03;1.38;;;;;;;;;;5082483;28;20020;-72
2022/05/02 13:43:23;;;;;;;2.95;1.38;;;;;;;;;;5081957;28;20097;-72
2022/05/02 13:45:49;;;;;;;6.95;2.10;;;;;;;;;;5082752;28;20024;-71
2022/05/02 13:48:14;;;;;;;2.60;1.50;;;;;;;;;;5081963;28;20024;-72
2022/05/02 13:50:58;;;;;;;4.47;3.22;;;;;;;;;;5082261;28;20035;-77
2022/05/02 13:53:39;;;;;;;3.70;2.10;;;;;;;;;;5082876;28;20038;-76
2022/05/02 13:56:16;;;;;;;5.07;2.00;;;;;;;;;;5082283;28;20028;-71
2022/05/02 13:58:42;;;;;;;9.48;6.40;;;;;;;;;;5082706;28;20123;-75
2022/05/02 14:01:32;;;;;;;5.88;4.38;;;;;;;;;;5081977;28;20111;-71
2022/05/02 14:09:32;;;;;;;5.90;3.28;;;;;;;;;;5082046;28;20052;-71
2022/05/02 14:11:58;;;;;;;4.57;2.83;;;;;;;;;;5082395;28;20070;-71
2022/05/02 14:14:23;;;;;;;2.83;2.40;;;;;;;;;;5082031;28;20059;-72
2022/05/02 14:16:48;;;;;;;4.07;2.92;;;;;;;;;;5081846;28;20024;-75
2022/05/02 14:19:20;;;;;;;8.98;5.10;;;;;;;;;;5081544;28;20063;-71
2022/05/02 14:21:49;;;;;;;2.45;2.20;;;;;;;;;;5082553;28;20032;-73
2022/05/02 14:24:15;;;;;;;3.45;1.63;;;;;;;;;;5081721;28;20028;-72
2022/05/02 14:26:40;;;;;;;1.15;1.08;;;;;;;;;;5082634;28;20039;-77
2022/05/02 14:29:08;;;;;;;3.15;1.50;;;;;;;;;;5081211;28;20105;-74
2022/05/02 14:31:36;;;;;;;7.03;2.80;;;;;;;;;;5082028;28;20048;-70
2022/05/02 14:34:06;;;;;;;4.32;2.70;;;;;;;;;;5083412;28;20446;-70
2022/05/02 14:36:32;;;;;;;2.95;2.08;;;;;;;;;;5085186;28;20024;-72
2022/05/02 14:38:57;;;;;;;4.22;2.38;;;;;;;;;;5085301;28;20422;-72
2022/05/02 14:41:23;;;;;;;11.02;6.72;;;;;;;;;;5085417;28;20043;-72
2022/05/02 14:43:48;;;;;;;7.70;5.05;;;;;;;;;;5085219;28;20531;-73
2022/05/02 14:46:15;;;;;;;10.65;5.13;;;;;;;;;;5084217;28;20024;-71
2022/05/02 14:48:40;;;;;;;7.78;3.53;;;;;;;;;;5085542;28;20445;-75
2022/05/02 14:51:07;;;;;;;10.63;3.25;;;;;;;;;;5085060;28;20024;-72
2022/05/02 14:53:39;;;;;;;9.65;6.13;;;;;;;;;;5085319;28;20032;-76
2022/05/02 14:56:08;;;;;;;4.63;3.10;;;;;;;;;;5085898;28;20647;-72
2022/05/02 14:58:37;;;;;;;13.65;7.63;;;;;;;;;;5085418;28;20020;-72
2022/05/02 15:01:06;;;;;;;26.90;15.15;;;;;;;;;;5085271;28;20027;-75
2022/05/02 15:03:33;;;;;;;9.02;5.70;;;;;;;;;;5083937;28;20032;-71
2022/05/02 15:06:05;;;;;;;14.30;9.20;;;;;;;;;;5084606;28;20063;-70
2022/05/02 15:08:39;;;;;;;6.90;4.85;;;;;;;;;;5084600;28;20032;-74
2022/05/02 15:11:06;;;;;;;6.93;4.13;;;;;;;;;;5084885;28;20121;-74
2022/05/02 15:13:42;;;;;;;18.73;9.90;;;;;;;;;;5064623;28;20843;-70
2022/05/02 15:16:18;;;;;;;8.82;3.65;;;;;;;;;;5084273;28;20467;-75
2022/05/02 15:22:18;;;;;;;15.02;9.70;;;;;;;;;;5083847;28;20076;-71
2022/05/02 15:24:53;;;;;;;10.23;7.30;;;;;;;;;;5060289;28;20121;-70
2022/05/02 15:36:39;;;;;;;9.18;7.07;;;;;;;;;;5082719;28;20051;-72
2022/05/02 15:38:29;;;;;;;6.93;5.50;;;;;;;;;;5083096;28;20101;-70
2022/05/02 15:40:54;;;;;;;4.60;3.00;;;;;;;;;;5083374;28;20032;-70